Time;durP1;ratioP1;P1;durP2;ratioP2;P2;SDS_P1;SDS_P2;PMS_P1;PMS_P2;Temp;Humidity;BMP_temperature;BMP_pressure;BME280_temperature;BME280_humidity;BME280_pressure;Samples;Min_cycle;Max_cycle;Signal;HPM_P1;HPM_P2
2022/03/25 00:02:20;;;;;;;64.67;27.13;;;4.10;77.10;;;;;;10413619;28;20034;-84
2022/03/25 00:07:21;;;;;;;61.10;27.20;;;4.10;77.50;;;;;;10412301;28;20451;-80
2022/03/25 00:12:21;;;;;;;60.67;24.67;;;4.10;77.60;;;;;;10413783;28;20126;-80
2022/03/25 00:17:23;;;;;;;50.87;23.93;;;4.00;78.00;;;;;;10411920;28;20032;-85
2022/03/25 00:22:23;;;;;;;50.13;24.80;;;3.90;78.10;;;;;;10413238;28;20038;-83
2022/03/25 00:27:24;;;;;;;58.47;25.83;;;3.90;78.00;;;;;;10412382;28;20480;-83
2022/03/25 00:32:25;;;;;;;56.50;25.47;;;3.90;78.40;;;;;;10411820;28;20103;-80
2022/03/25 00:37:25;;;;;;;58.53;26.03;;;3.80;78.60;;;;;;10413105;28;20451;-80
2022/03/25 00:42:27;;;;;;;66.87;27.67;;;3.60;78.70;;;;;;10411828;28;20037;-84
2022/03/25 00:47:28;;;;;;;66.23;29.67;;;3.60;79.00;;;;;;10411873;28;20041;-80
2022/03/25 00:52:29;;;;;;;64.60;26.93;;;3.70;78.70;;;;;;10412248;28;20083;-80
2022/03/25 00:57:30;;;;;;;50.43;23.63;;;3.70;79.40;;;;;;10411110;28;20128;-80
2022/03/25 01:02:30;;;;;;;46.70;19.93;;;3.80;78.80;;;;;;10411427;28;20095;-80
2022/03/25 01:07:31;;;;;;;46.43;20.97;;;3.90;78.60;;;;;;10392984;28;20488;-83
2022/03/25 01:12:32;;;;;;;42.97;19.40;;;3.90;78.80;;;;;;10410929;28;20099;-78
2022/03/25 01:17:32;;;;;;;38.63;18.43;;;4.00;79.00;;;;;;10410851;28;20431;-80
2022/03/25 01:22:33;;;;;;;40.53;17.70;;;3.90;79.20;;;;;;10410336;28;20033;-80
2022/03/25 01:27:33;;;;;;;39.50;17.30;;;3.80;79.70;;;;;;10426005;22;20064;-81
2022/03/25 01:32:34;;;;;;;43.77;20.10;;;3.80;80.10;;;;;;10370943;28;20481;-80
2022/03/25 01:37:35;;;;;;;43.33;19.23;;;3.60;80.30;;;;;;10401690;28;20034;-80
2022/03/25 01:42:39;;;;;;;46.30;18.77;;;3.50;80.90;;;;;;10380972;28;20669;-81
2022/03/25 01:47:42;;;;;;;39.40;19.00;;;3.50;81.10;;;;;;10371639;28;20052;-80
2022/03/25 01:52:43;;;;;;;42.17;18.87;;;3.40;81.40;;;;;;10404924;28;20065;-82
2022/03/25 01:57:44;;;;;;;36.27;17.17;;;3.40;81.80;;;;;;10369941;28;20124;-82
2022/03/25 02:02:45;;;;;;;58.40;24.57;;;3.30;81.90;;;;;;10387307;28;20037;-83
2022/03/25 02:07:46;;;;;;;86.60;38.20;;;3.10;82.30;;;;;;10401704;28;20045;-80
2022/03/25 02:12:47;;;;;;;124.10;48.30;;;3.00;82.90;;;;;;10384854;28;20045;-80
2022/03/25 02:17:47;;;;;;;99.37;41.17;;;2.80;83.40;;;;;;10408167;28;20452;-80
2022/03/25 02:22:48;;;;;;;76.53;31.50;;;2.80;84.20;;;;;;10409279;28;20045;-84
2022/03/25 02:27:49;;;;;;;71.53;29.90;;;2.70;85.40;;;;;;10407299;28;20433;-86
2022/03/25 02:32:49;;;;;;;69.93;31.67;;;2.50;86.20;;;;;;10403406;28;20095;-87
2022/03/25 02:37:50;;;;;;;80.53;33.67;;;2.40;86.70;;;;;;10391497;28;20041;-84
2022/03/25 02:42:50;;;;;;;90.27;36.17;;;2.30;87.90;;;;;;10386237;28;20042;-80
2022/03/25 02:47:51;;;;;;;105.13;40.07;;;2.10;89.10;;;;;;10403852;28;20045;-84
2022/03/25 02:52:52;;;;;;;90.70;38.37;;;2.00;90.30;;;;;;10386477;28;20033;-80
2022/03/25 02:57:54;;;;;;;96.87;38.10;;;1.90;91.20;;;;;;10406624;28;20036;-84
2022/03/25 03:02:55;;;;;;;95.83;35.77;;;1.90;91.60;;;;;;10389135;28;20033;-80
2022/03/25 03:07:56;;;;;;;66.63;27.17;;;1.90;92.30;;;;;;10406642;28;20046;-80
2022/03/25 03:12:56;;;;;;;66.30;28.33;;;1.90;92.80;;;;;;10407351;28;20033;-81
2022/03/25 03:17:57;;;;;;;55.80;25.03;;;1.90;92.90;;;;;;10407001;28;20037;-84
2022/03/25 03:22:58;;;;;;;45.20;21.60;;;2.00;92.90;;;;;;10394713;28;20079;-81
2022/03/25 03:27:58;;;;;;;42.87;18.90;;;2.00;92.70;;;;;;10395601;28;20062;-84
2022/03/25 03:33:04;;;;;;;53.47;23.63;;;2.00;93.60;;;;;;10407971;28;20477;-81
2022/03/25 03:38:05;;;;;;;46.95;19.45;;;2.00;93.30;;;;;;10382723;28;20037;-80
2022/03/25 03:43:06;;;;;;;46.77;20.30;;;2.10;93.00;;;;;;10413577;28;20682;-81
2022/03/25 03:48:07;;;;;;;45.63;19.17;;;2.20;93.20;;;;;;10413510;28;20033;-80
2022/03/25 03:53:07;;;;;;;42.33;20.50;;;2.10;93.30;;;;;;10414444;28;20029;-80
2022/03/25 03:58:09;;;;;;;43.87;19.17;;;2.00;93.70;;;;;;10403810;28;20076;-83
2022/03/25 04:03:10;;;;;;;48.37;20.67;;;1.90;93.70;;;;;;10404800;28;20041;-82
2022/03/25 04:08:11;;;;;;;81.07;34.67;;;1.80;94.00;;;;;;10368753;28;20041;-81
2022/03/25 04:13:11;;;;;;;156.57;58.50;;;1.70;94.80;;;;;;10396201;28;20037;-80
2022/03/25 04:18:12;;;;;;;127.77;54.67;;;1.60;95.70;;;;;;10387387;28;20022;-80
2022/03/25 04:23:12;;;;;;;165.23;65.20;;;1.50;95.40;;;;;;10355236;28;20041;-81
2022/03/25 04:28:13;;;;;;;152.00;62.07;;;1.60;96.10;;;;;;10394311;28;20061;-84
2022/03/25 04:33:14;;;;;;;95.50;43.67;;;1.50;96.80;;;;;;10412025;28;20022;-82
2022/03/25 04:38:15;;;;;;;76.80;34.97;;;1.50;97.50;;;;;;10399537;28;20042;-81
2022/03/25 04:43:15;;;;;;;64.87;28.90;;;1.50;97.90;;;;;;10372686;28;20506;-80
2022/03/25 04:48:16;;;;;;;72.33;33.07;;;1.40;98.60;;;;;;10396178;28;20056;-80
2022/03/25 04:53:17;;;;;;;81.63;35.50;;;1.30;99.10;;;;;;10400426;28;20465;-84
2022/03/25 04:58:17;;;;;;;79.07;35.70;;;1.20;99.80;;;;;;10372278;28;20079;-81
2022/03/25 05:03:19;;;;;;;81.30;36.90;;;1.20;99.90;;;;;;10406318;28;20021;-81
2022/03/25 05:08:21;;;;;;;87.07;37.00;;;1.20;99.90;;;;;;10408194;28;20037;-82
2022/03/25 05:13:21;;;;;;;102.27;40.80;;;1.30;99.90;;;;;;10406239;28;20083;-83
2022/03/25 05:18:23;;;;;;;93.77;40.80;;;1.30;99.90;;;;;;10408071;28;20095;-85
2022/03/25 05:23:23;;;;;;;92.13;42.17;;;1.30;99.90;;;;;;10398822;28;20038;-82
2022/03/25 05:28:25;;;;;;;103.67;43.77;;;1.40;99.90;;;;;;10404868;28;20049;-80
2022/03/25 05:33:26;;;;;;;117.63;51.20;;;1.50;99.90;;;;;;10402088;28;20462;-80
2022/03/25 05:38:27;;;;;;;147.87;66.60;;;1.60;99.90;;;;;;10409193;28;20106;-81
2022/03/25 05:43:28;;;;;;;166.50;73.67;;;1.70;99.90;;;;;;10409498;28;20021;-84
2022/03/25 05:48:29;;;;;;;174.60;74.93;;;1.80;99.90;;;;;;10409416;28;20034;-81
2022/03/25 05:53:29;;;;;;;168.50;74.47;;;2.00;99.90;;;;;;10409892;28;20018;-81
2022/03/25 05:58:37;;;;;;;172.80;78.70;;;2.20;99.90;;;;;;10406423;28;20029;-81
2022/03/25 06:03:38;;;;;;;152.93;69.23;;;2.30;99.90;;;;;;10406677;28;20021;-83
2022/03/25 06:08:39;;;;;;;129.53;60.10;;;2.50;99.90;;;;;;10408843;28;20408;-81
2022/03/25 06:13:40;;;;;;;123.93;56.87;;;2.70;99.90;;;;;;10391524;28;20033;-82
2022/03/25 06:18:40;;;;;;;119.37;56.03;;;3.00;99.90;;;;;;10408913;28;20017;-84
2022/03/25 06:23:41;;;;;;;105.30;50.57;;;3.20;99.90;;;;;;10409166;28;20021;-84
2022/03/25 06:28:42;;;;;;;123.93;58.67;;;3.50;99.90;;;;;;10408412;28;20394;-81
2022/03/25 06:33:42;;;;;;;113.37;54.77;;;3.70;99.90;;;;;;10391033;28;20083;-81
2022/03/25 06:38:43;;;;;;;132.30;64.07;;;4.00;99.90;;;;;;10408608;28;20029;-84
2022/03/25 06:43:44;;;;;;;130.20;66.97;;;4.40;99.90;;;;;;10408591;28;20080;-83
2022/03/25 06:48:45;;;;;;;129.40;75.77;;;4.70;98.90;;;;;;10408245;28;20079;-81
2022/03/25 06:53:45;;;;;;;120.17;60.00;;;5.00;98.90;;;;;;10408236;28;20040;-82
2022/03/25 06:58:46;;;;;;;118.10;53.57;;;5.30;98.30;;;;;;10408746;28;20033;-80
2022/03/25 07:03:47;;;;;;;125.57;50.80;;;5.70;96.80;;;;;;10416460;28;20026;-82
2022/03/25 07:08:53;;;;;;;120.73;55.60;;;6.00;95.20;;;;;;10416132;28;20042;-81
2022/03/25 07:13:54;;;;;;;122.22;54.35;;;6.50;93.80;;;;;;10415926;28;20171;-84
2022/03/25 07:18:55;;;;;;;105.60;48.47;;;6.90;92.80;;;;;;10416016;28;20112;-82
2022/03/25 07:23:56;;;;;;;93.10;44.37;;;7.40;91.00;;;;;;10415910;28;20036;-82
2022/03/25 07:28:57;;;;;;;84.97;42.80;;;7.80;89.70;;;;;;10414829;28;20054;-81
2022/03/25 07:33:58;;;;;;;91.30;42.50;;;8.30;87.90;;;;;;10415421;28;20108;-82
2022/03/25 07:38:59;;;;;;;92.50;40.30;;;8.80;86.40;;;;;;10397176;28;20033;-82
2022/03/25 07:44:00;;;;;;;71.67;37.47;;;9.10;84.40;;;;;;10415230;28;20037;-81
2022/03/25 07:49:00;;;;;;;72.97;33.97;;;9.60;83.20;;;;;;10414722;28;20370;-82
2022/03/25 07:54:01;;;;;;;64.63;32.73;;;10.00;80.20;;;;;;10414140;28;20025;-85
2022/03/25 07:59:03;;;;;;;59.00;28.70;;;10.50;79.30;;;;;;10414222;28;20029;-82
2022/03/25 08:04:04;;;;;;;19.30;11.30;;;10.90;77.20;;;;;;10414067;28;20076;-81
2022/03/25 08:09:04;;;;;;;26.27;11.88;;;11.30;69.90;;;;;;10414386;28;20037;-81
2022/03/25 08:14:06;;;;;;;22.05;11.13;;;11.70;67.50;;;;;;10413063;28;20037;-84
2022/03/25 08:19:07;;;;;;;21.63;11.25;;;11.90;62.40;;;;;;10413712;28;20033;-83
2022/03/25 08:29:27;;;;;;;23.02;11.18;;;12.40;63.60;;;;;;10413279;28;20128;-81
2022/03/25 08:34:28;;;;;;;25.55;11.57;;;12.60;61.60;;;;;;10412875;28;20531;-83
2022/03/25 08:39:28;;;;;;;22.30;10.18;;;12.90;62.10;;;;;;10412448;28;20103;-82
2022/03/25 08:44:29;;;;;;;17.58;8.90;;;13.20;58.90;;;;;;10413110;28;20517;-82
2022/03/25 08:49:32;;;;;;;14.88;8.43;;;13.40;55.30;;;;;;10394401;28;20033;-82
2022/03/25 08:54:33;;;;;;;18.60;10.10;;;13.70;58.10;;;;;;10412579;28;20025;-82
2022/03/25 08:59:33;;;;;;;17.13;8.63;;;14.00;54.80;;;;;;10411998;28;20033;-81
2022/03/25 09:04:34;;;;;;;18.33;10.20;;;14.20;54.80;;;;;;10393729;28;20037;-82
2022/03/25 09:09:34;;;;;;;22.73;10.85;;;14.20;55.20;;;;;;10411630;28;20091;-82
2022/03/25 09:14:35;;;;;;;14.93;9.23;;;14.40;54.10;;;;;;10411440;28;20416;-84
2022/03/25 09:19:36;;;;;;;23.00;10.48;;;14.40;53.10;;;;;;10411354;28;20472;-83
2022/03/25 09:24:37;;;;;;;17.42;8.90;;;14.60;54.50;;;;;;10411598;28;20029;-82
2022/03/25 09:29:38;;;;;;;20.45;9.90;;;14.80;53.50;;;;;;10410505;28;20061;-81
2022/03/25 09:39:58;;;;;;;18.13;9.80;;;14.80;53.20;;;;;;10410629;28;20037;-82
2022/03/25 09:45:03;;;;;;;19.98;10.50;;;15.00;54.00;;;;;;10410695;28;20029;-85
2022/03/25 09:50:06;;;;;;;17.77;9.90;;;15.20;54.90;;;;;;10409583;28;20135;-83
2022/03/25 09:55:07;;;;;;;15.63;9.07;;;15.50;51.90;;;;;;10392118;28;20033;-82
2022/03/25 10:00:13;;;;;;;19.02;9.48;;;15.30;52.90;;;;;;10409774;28;20366;-81
2022/03/25 10:05:19;;;;;;;16.77;8.40;;;15.50;54.10;;;;;;10409225;28;20074;-82
2022/03/25 10:10:24;;;;;;;22.85;10.68;;;15.60;54.20;;;;;;10391851;28;20025;-82
2022/03/25 10:15:26;;;;;;;;;;;15.90;53.30;;;;;;10409712;28;20032;-82
2022/03/25 10:20:33;;;;;;;18.17;9.50;;;16.00;51.60;;;;;;10409113;28;19912;-81
2022/03/25 10:25:49;;;;;;;16.65;9.82;;;16.00;53.50;;;;;;10408958;28;20036;-86
2022/03/25 10:30:52;;;;;;;16.63;8.63;;;16.10;53.70;;;;;;10408845;28;20409;-82
2022/03/25 10:36:02;;;;;;;14.98;7.75;;;16.20;52.70;;;;;;10407956;28;20025;-82
2022/03/25 10:41:02;;;;;;;16.63;9.30;;;16.30;52.40;;;;;;10408819;28;20581;-82
2022/03/25 10:46:03;;;;;;;17.25;9.20;;;16.60;52.20;;;;;;10408389;28;20030;-84
2022/03/25 10:51:08;;;;;;;16.40;9.48;;;16.30;51.50;;;;;;10408528;28;20041;-81
2022/03/25 10:56:12;;;;;;;18.70;9.50;;;16.70;52.60;;;;;;10408817;28;20036;-81
2022/03/25 11:01:13;;;;;;;25.38;13.65;;;16.80;52.50;;;;;;10408149;28;20025;-82
2022/03/25 11:06:15;;;;;;;15.02;9.80;;;16.90;51.80;;;;;;10408392;28;20037;-81
2022/03/25 11:11:17;;;;;;;16.38;8.48;;;17.10;52.00;;;;;;10407684;28;20172;-81
2022/03/25 11:16:18;;;;;;;15.38;8.52;;;17.50;52.00;;;;;;10407937;28;20452;-82
2022/03/25 11:21:20;;;;;;;16.23;9.10;;;17.70;51.40;;;;;;10408734;28;20033;-82
2022/03/25 11:26:26;;;;;;;18.45;9.70;;;17.60;50.20;;;;;;10400593;28;20072;-82
2022/03/25 11:31:27;;;;;;;17.52;9.32;;;17.50;50.40;;;;;;10373197;28;20026;-83
2022/03/25 11:36:28;;;;;;;17.25;9.23;;;17.40;48.90;;;;;;10388787;28;20034;-82
2022/03/25 11:41:28;;;;;;;20.38;8.20;;;17.30;51.10;;;;;;10389912;28;20022;-84
2022/03/25 11:46:29;;;;;;;15.82;7.75;;;17.20;50.60;;;;;;10408817;28;20072;-82
2022/03/25 11:51:33;;;;;;;18.63;9.85;;;17.30;51.20;;;;;;10414941;28;20037;-83
2022/03/25 11:56:48;;;;;;;16.55;8.48;;;17.20;49.50;;;;;;10414928;28;20022;-81
2022/03/25 12:01:49;;;;;;;17.40;9.27;;;17.00;49.40;;;;;;10414400;28;20377;-82
2022/03/25 12:07:06;;;;;;;19.25;9.27;;;17.30;51.30;;;;;;10413958;28;20021;-82
2022/03/25 12:12:07;;;;;;;16.30;9.35;;;17.40;52.40;;;;;;10413672;28;20034;-82
2022/03/25 12:17:12;;;;;;;18.20;9.07;;;17.80;51.30;;;;;;10413516;28;20435;-82
2022/03/25 12:22:18;;;;;;;26.20;12.13;;;17.80;49.50;;;;;;10396043;28;20022;-81
2022/03/25 12:27:20;;;;;;;13.82;7.97;;;17.80;50.40;;;;;;10413206;28;20053;-83
2022/03/25 12:32:23;;;;;;;20.25;10.10;;;17.90;49.70;;;;;;10413327;28;20040;-83
2022/03/25 12:37:30;;;;;;;20.45;10.80;;;17.70;49.10;;;;;;10412978;28;20496;-82
2022/03/25 12:42:30;;;;;;;20.63;10.98;;;17.80;50.80;;;;;;10412827;28;20112;-82
2022/03/25 12:47:33;;;;;;;22.67;11.75;;;17.80;48.90;;;;;;10412341;28;20041;-82
2022/03/25 12:52:33;;;;;;;19.52;12.10;;;17.70;50.80;;;;;;10412607;28;20477;-85
2022/03/25 12:57:36;;;;;;;23.88;11.55;;;17.90;50.10;;;;;;10411604;28;20091;-82
2022/03/25 13:02:40;;;;;;;19.45;11.00;;;18.00;50.00;;;;;;10412162;28;20091;-81
2022/03/25 13:07:50;;;;;;;19.42;10.57;;;17.90;49.50;;;;;;10411621;28;20033;-82
2022/03/25 13:12:52;;;;;;;17.00;10.70;;;17.90;49.90;;;;;;10411964;28;20030;-82
2022/03/25 13:17:58;;;;;;;17.48;10.07;;;18.00;48.80;;;;;;10396826;28;20030;-86
2022/03/25 13:23:10;;;;;;;22.30;12.18;;;17.80;49.40;;;;;;10371673;28;20037;-81
2022/03/25 13:28:13;;;;;;;21.15;10.75;;;17.60;50.40;;;;;;10365170;28;20543;-82
2022/03/25 13:33:16;;;;;;;17.55;10.88;;;17.80;49.70;;;;;;10405929;28;20075;-81
2022/03/25 13:38:22;;;;;;;18.65;11.00;;;17.80;49.40;;;;;;10398163;28;20026;-83
2022/03/25 13:43:45;;;;;;;18.05;10.82;;;17.80;50.20;;;;;;10402093;28;20116;-81
2022/03/25 13:48:47;;;;;;;37.58;16.58;;;17.80;50.40;;;;;;10362239;28;20154;-81
2022/03/25 13:53:49;;;;;;;104.93;45.92;;;17.80;50.40;;;;;;10368054;28;20030;-82
2022/03/25 13:58:53;;;;;;;19.05;11.68;;;17.80;50.30;;;;;;10393725;28;20061;-83
2022/03/25 14:04:16;;;;;;;17.58;10.75;;;17.80;49.90;;;;;;10409708;28;20415;-85
2022/03/25 14:09:35;;;;;;;17.67;10.32;;;17.80;50.00;;;;;;10405949;28;20037;-86
2022/03/25 14:14:36;;;;;;;22.02;12.65;;;17.60;49.80;;;;;;10377732;28;20022;-82
2022/03/25 14:19:37;;;;;;;23.65;12.65;;;17.40;49.50;;;;;;10370258;28;20022;-82
2022/03/25 14:24:38;;;;;;;20.13;11.93;;;17.20;50.20;;;;;;10368229;28;20389;-81
2022/03/25 14:29:40;;;;;;;19.70;11.30;;;17.10;50.70;;;;;;10390654;28;20378;-85
2022/03/25 14:34:40;;;;;;;17.33;10.07;;;17.00;51.10;;;;;;10406694;28;20709;-80
2022/03/25 14:39:41;;;;;;;21.70;11.95;;;16.90;50.60;;;;;;10396810;28;20156;-83
2022/03/25 14:44:45;;;;;;;23.17;12.07;;;16.70;50.90;;;;;;10408379;28;20050;-82
2022/03/25 14:49:46;;;;;;;25.40;13.93;;;16.60;51.30;;;;;;10402936;28;20041;-81
2022/03/25 14:54:47;;;;;;;29.98;14.43;;;16.60;51.20;;;;;;10409714;28;20022;-81
2022/03/25 14:59:49;;;;;;;19.63;11.75;;;16.50;51.80;;;;;;10377929;28;20472;-81
2022/03/25 15:04:50;;;;;;;24.33;11.60;;;16.40;51.50;;;;;;10402563;28;20040;-82
2022/03/25 15:09:50;;;;;;;16.60;8.43;;;16.20;51.40;;;;;;10407178;28;20042;-81
2022/03/25 15:14:51;;;;;;;15.55;8.45;;;16.10;51.70;;;;;;10387984;28;20025;-83
2022/03/25 15:19:52;;;;;;;15.23;7.35;;;15.90;51.30;;;;;;10448482;28;20086;-83
2022/03/25 15:24:52;;;;;;;14.38;7.13;;;15.80;51.30;;;;;;10411060;28;20036;-83
2022/03/25 15:35:13;;;;;;;14.70;6.47;;;15.60;52.20;;;;;;10413817;28;20033;-80
2022/03/25 15:40:15;;;;;;;12.10;6.60;;;15.50;51.70;;;;;;10406149;28;20040;-81
2022/03/25 15:45:16;;;;;;;13.65;7.20;;;15.40;51.90;;;;;;10410450;28;20018;-81
2022/03/25 15:50:17;;;;;;;13.23;7.35;;;15.30;51.50;;;;;;10412271;28;20037;-81
2022/03/25 15:55:20;;;;;;;15.00;7.80;;;15.20;51.80;;;;;;10414666;28;20037;-81
2022/03/25 16:00:32;;;;;;;15.55;8.23;;;15.10;51.70;;;;;;10414454;28;20029;-82
2022/03/25 16:05:33;;;;;;;14.20;7.05;;;14.90;52.00;;;;;;10413909;28;20032;-85
2022/03/25 16:10:34;;;;;;;12.25;7.30;;;14.80;51.70;;;;;;10414191;28;20065;-84
2022/03/25 16:15:37;;;;;;;15.48;7.75;;;14.70;52.00;;;;;;10413563;28;20060;-88
2022/03/25 16:20:37;;;;;;;13.02;7.10;;;14.50;52.30;;;;;;10399413;28;20080;-83
2022/03/25 16:25:38;;;;;;;17.33;8.15;;;14.30;51.90;;;;;;10395018;28;20107;-80
2022/03/25 16:30:39;;;;;;;16.30;7.70;;;14.10;52.40;;;;;;10401172;28;20059;-83
2022/03/25 16:35:40;;;;;;;14.93;7.05;;;13.90;52.50;;;;;;10400895;28;20033;-81
2022/03/25 16:40:40;;;;;;;15.07;7.30;;;13.70;53.20;;;;;;10410111;28;20052;-81
2022/03/25 16:45:42;;;;;;;17.08;8.38;;;13.50;53.50;;;;;;10415090;28;20377;-85
2022/03/25 16:50:43;;;;;;;18.85;8.32;;;13.20;53.80;;;;;;10419711;28;20099;-86
2022/03/25 16:55:44;;;;;;;20.25;11.18;;;13.00;54.20;;;;;;10403041;28;20091;-85
2022/03/25 17:00:44;;;;;;;22.95;12.00;;;12.70;54.40;;;;;;10394441;28;20108;-85
2022/03/25 17:05:46;;;;;;;26.58;12.52;;;12.40;54.70;;;;;;10410195;28;20029;-84
2022/03/25 17:10:47;;;;;;;28.10;13.23;;;12.30;55.10;;;;;;10406573;28;20046;-84
2022/03/25 17:15:48;;;;;;;22.45;12.68;;;12.00;55.30;;;;;;10402095;28;20033;-84
2022/03/25 17:20:49;;;;;;;23.50;11.68;;;11.70;56.20;;;;;;10405700;28;20048;-80
2022/03/25 17:25:51;;;;;;;27.13;12.43;;;11.30;57.20;;;;;;10407972;28;20037;-83
2022/03/25 17:30:53;;;;;;;28.00;13.50;;;10.70;58.40;;;;;;10326500;28;20038;-82
2022/03/25 17:35:54;;;;;;;27.47;13.50;;;10.60;58.40;;;;;;10312050;28;20530;-81
2022/03/25 17:40:55;;;;;;;27.57;12.83;;;10.60;58.30;;;;;;10317485;28;20105;-81
2022/03/25 17:45:56;;;;;;;29.53;12.87;;;10.50;58.20;;;;;;10318393;28;20026;-81
2022/03/25 17:50:57;;;;;;;26.43;13.27;;;10.40;58.60;;;;;;10325082;28;20044;-80
2022/03/25 17:55:59;;;;;;;26.27;13.53;;;10.40;58.80;;;;;;10318448;28;20022;-84
2022/03/25 18:01:01;;;;;;;26.37;13.10;;;10.10;59.90;;;;;;10318963;28;20483;-80
2022/03/25 18:06:02;;;;;;;26.73;13.23;;;9.50;61.20;;;;;;10321935;28;20679;-81
2022/03/25 18:11:03;;;;;;;29.03;15.20;;;9.30;61.60;;;;;;10305213;28;20042;-80
2022/03/25 18:16:04;;;;;;;29.13;15.27;;;9.30;61.90;;;;;;10306061;28;20030;-80
2022/03/25 18:21:05;;;;;;;30.63;15.53;;;9.20;62.70;;;;;;10320281;28;20023;-81
2022/03/25 18:26:07;;;;;;;31.23;15.63;;;9.20;62.90;;;;;;10320812;28;20037;-81
2022/03/25 18:31:07;;;;;;;38.37;16.80;;;9.30;62.10;;;;;;10388267;28;20046;-81
2022/03/25 18:36:08;;;;;;;34.47;16.93;;;9.30;62.10;;;;;;10409008;28;20465;-82
2022/03/25 18:41:09;;;;;;;32.27;16.90;;;9.40;62.00;;;;;;10389669;28;20385;-81
2022/03/25 18:46:10;;;;;;;32.80;17.00;;;9.30;62.30;;;;;;10396417;28;20036;-85
2022/03/25 18:51:13;;;;;;;35.97;17.70;;;8.80;63.30;;;;;;10394931;28;20041;-85
2022/03/25 18:56:14;;;;;;;33.93;17.30;;;8.60;64.10;;;;;;10402692;28;20030;-81
2022/03/25 19:01:16;;;;;;;32.83;16.57;;;8.40;65.10;;;;;;10396719;28;20132;-85
2022/03/25 19:06:17;;;;;;;34.27;15.40;;;8.20;65.30;;;;;;10417633;28;20108;-81
2022/03/25 19:11:20;;;;;;;33.97;16.03;;;8.20;65.10;;;;;;10415499;28;20045;-84
2022/03/25 19:16:21;;;;;;;32.63;15.87;;;8.20;65.70;;;;;;10412892;28;20032;-81
2022/03/25 19:21:23;;;;;;;33.47;14.67;;;8.00;66.10;;;;;;10409303;28;20044;-82
2022/03/25 19:26:24;;;;;;;30.07;15.00;;;7.80;66.60;;;;;;10432213;28;20132;-83
2022/03/25 19:31:25;;;;;;;37.47;16.03;;;7.70;67.60;;;;;;10407693;28;20601;-83
2022/03/25 19:36:26;;;;;;;45.87;16.00;;;7.50;67.30;;;;;;10413291;28;20227;-80
2022/03/25 19:41:28;;;;;;;35.20;16.97;;;7.50;67.40;;;;;;10412757;28;20675;-79
2022/03/25 19:46:29;;;;;;;37.73;16.90;;;7.50;67.60;;;;;;10385214;28;20392;-79
2022/03/25 19:51:29;;;;;;;36.87;17.40;;;7.80;66.90;;;;;;10399700;28;20022;-81
2022/03/25 19:56:31;;;;;;;39.27;18.33;;;8.50;65.70;;;;;;10410124;28;20044;-80
2022/03/25 20:01:32;;;;;;;42.77;17.97;;;8.80;64.50;;;;;;10395728;28;20113;-79
2022/03/25 20:06:33;;;;;;;37.20;17.57;;;9.10;63.50;;;;;;10393149;28;20116;-80
2022/03/25 20:11:34;;;;;;;35.37;17.40;;;9.30;62.90;;;;;;10414107;28;20503;-78
2022/03/25 20:16:34;;;;;;;36.23;17.47;;;9.40;62.50;;;;;;10404829;28;20029;-79
2022/03/25 20:21:35;;;;;;;48.03;18.33;;;9.40;62.40;;;;;;10403412;28;20026;-80
2022/03/25 20:26:37;;;;;;;33.03;16.33;;;9.40;62.10;;;;;;10384404;28;20080;-79
2022/03/25 20:31:38;;;;;;;39.60;18.43;;;9.40;62.00;;;;;;10410749;28;20033;-79
2022/03/25 20:36:39;;;;;;;34.67;16.23;;;9.40;61.80;;;;;;10412232;28;20037;-80
2022/03/25 20:41:40;;;;;;;39.50;18.47;;;9.40;61.60;;;;;;10406569;28;20041;-79
2022/03/25 20:46:41;;;;;;;35.43;17.43;;;9.40;61.40;;;;;;10411540;28;20072;-79
2022/03/25 20:51:42;;;;;;;35.53;16.40;;;9.20;61.30;;;;;;10441776;28;20433;-78
2022/03/25 20:56:43;;;;;;;35.40;16.57;;;9.20;61.20;;;;;;10393432;28;20036;-78
2022/03/25 21:01:44;;;;;;;38.10;17.60;;;9.10;61.00;;;;;;10409134;28;20573;-80
2022/03/25 21:06:45;;;;;;;37.63;17.00;;;9.10;60.70;;;;;;10407321;28;20091;-80
2022/03/25 21:11:45;;;;;;;35.33;15.93;;;9.10;60.40;;;;;;10383843;28;20032;-79
2022/03/25 21:16:46;;;;;;;32.03;16.30;;;9.00;60.30;;;;;;10396022;28;20424;-79
2022/03/25 21:21:49;;;;;;;38.57;16.53;;;9.00;60.40;;;;;;10403386;28;20109;-86
2022/03/25 21:26:50;;;;;;;39.87;17.77;;;9.00;60.80;;;;;;10405266;28;20064;-79
2022/03/25 21:31:50;;;;;;;39.70;18.70;;;9.00;61.90;;;;;;10389324;28;20037;-81
2022/03/25 21:36:51;;;;;;;43.17;18.20;;;9.00;62.60;;;;;;10379210;28;20037;-81
2022/03/25 21:41:51;;;;;;;34.93;16.93;;;9.00;62.80;;;;;;10437083;22;20418;-85
2022/03/25 21:46:52;;;;;;;39.07;17.47;;;8.90;62.40;;;;;;10450159;28;20480;-80
2022/03/25 21:51:53;;;;;;;38.43;16.53;;;8.80;62.40;;;;;;10450920;28;20239;-82
2022/03/25 21:56:54;;;;;;;37.00;15.47;;;8.70;62.50;;;;;;10437873;28;20022;-84
2022/03/25 22:01:55;;;;;;;34.40;16.63;;;8.60;62.60;;;;;;10442863;28;20040;-86
2022/03/25 22:06:56;;;;;;;36.50;17.33;;;8.60;63.00;;;;;;10444559;28;20025;-81
2022/03/25 22:11:56;;;;;;;37.60;17.83;;;8.50;63.40;;;;;;10450673;28;20033;-81
2022/03/25 22:16:57;;;;;;;35.43;17.37;;;8.50;64.00;;;;;;10447551;28;20487;-80
2022/03/25 22:21:58;;;;;;;37.77;16.60;;;8.50;64.70;;;;;;10443389;28;20033;-80
2022/03/25 22:26:59;;;;;;;42.10;17.47;;;8.30;64.90;;;;;;10438385;28;20032;-81
2022/03/25 22:31:59;;;;;;;40.90;18.50;;;8.00;65.90;;;;;;10430939;28;20392;-81
2022/03/25 22:37:01;;;;;;;41.53;19.13;;;7.70;66.80;;;;;;10421870;28;20037;-80
2022/03/25 22:42:02;;;;;;;43.27;19.10;;;7.30;67.90;;;;;;10409323;28;20057;-80
2022/03/25 22:47:03;;;;;;;42.80;19.40;;;6.90;69.20;;;;;;10410157;28;20033;-82
2022/03/25 22:52:06;;;;;;;72.63;26.67;;;6.60;70.10;;;;;;10408442;28;20033;-81
2022/03/25 22:57:07;;;;;;;49.67;23.77;;;6.20;71.30;;;;;;10407313;28;20096;-80
2022/03/25 23:02:07;;;;;;;42.87;21.23;;;6.00;71.60;;;;;;10401549;28;20096;-82
2022/03/25 23:07:08;;;;;;;52.80;22.17;;;5.70;73.00;;;;;;10406120;28;20528;-80
2022/03/25 23:12:09;;;;;;;53.07;23.77;;;5.50;73.50;;;;;;10407418;28;20029;-80
2022/03/25 23:17:09;;;;;;;56.77;24.73;;;5.30;73.90;;;;;;10407021;28;20116;-80
2022/03/25 23:22:10;;;;;;;66.90;28.83;;;5.20;74.50;;;;;;10407277;28;20477;-81
2022/03/25 23:27:11;;;;;;;67.03;29.73;;;5.00;74.80;;;;;;10407406;28;20112;-80
2022/03/25 23:32:11;;;;;;;69.97;29.27;;;4.90;76.00;;;;;;10411189;28;20112;-85
2022/03/25 23:37:12;;;;;;;68.67;32.50;;;4.60;76.90;;;;;;10417205;28;20535;-83
2022/03/25 23:42:13;;;;;;;70.97;31.67;;;4.40;77.60;;;;;;10437522;22;20472;-81
2022/03/25 23:47:13;;;;;;;76.00;31.73;;;4.30;78.00;;;;;;10410767;28;20040;-80
2022/03/25 23:52:14;;;;;;;84.70;34.67;;;4.10;78.60;;;;;;10404812;28;20025;-82
2022/03/25 23:57:15;;;;;;;84.77;36.73;;;4.00;78.90;;;;;;10388515;28;20029;-80
